sensor_id;sensor_type;location;lat;lon;timestamp;P1;durP1;ratioP1;P2;durP2;ratioP2
23670;SDS011;12012;51.998;7.614;2022-12-16T00:00:31;89.40;;;43.03;;
23670;SDS011;12012;51.998;7.614;2022-12-16T00:02:57;91.38;;;42.60;;
23670;SDS011;12012;51.998;7.614;2022-12-16T00:05:24;79.43;;;39.00;;
23670;SDS011;12012;51.998;7.614;2022-12-16T00:07:50;89.75;;;41.60;;
23670;SDS011;12012;51.998;7.614;2022-12-16T00:10:15;75.93;;;36.88;;
23670;SDS011;12012;51.998;7.614;2022-12-16T00:12:41;78.22;;;38.17;;
23670;SDS011;12012;51.998;7.614;2022-12-16T00:15:07;84.65;;;40.30;;
23670;SDS011;12012;51.998;7.614;2022-12-16T00:17:33;90.60;;;42.80;;
23670;SDS011;12012;51.998;7.614;2022-12-16T00:20:00;90.05;;;41.55;;
23670;SDS011;12012;51.998;7.614;2022-12-16T00:22:27;83.30;;;40.03;;
23670;SDS011;12012;51.998;7.614;2022-12-16T00:24:53;80.18;;;37.95;;
23670;SDS011;12012;51.998;7.614;2022-12-16T00:27:18;89.90;;;42.50;;
23670;SDS011;12012;51.998;7.614;2022-12-16T00:29:44;87.90;;;41.67;;
23670;SDS011;12012;51.998;7.614;2022-12-16T00:32:09;83.78;;;41.13;;
23670;SDS011;12012;51.998;7.614;2022-12-16T00:34:35;83.45;;;41.22;;
23670;SDS011;12012;51.998;7.614;2022-12-16T00:37:01;88.32;;;41.00;;
23670;SDS011;12012;51.998;7.614;2022-12-16T00:39:26;85.05;;;40.58;;
23670;SDS011;12012;51.998;7.614;2022-12-16T00:41:52;82.55;;;40.17;;
23670;SDS011;12012;51.998;7.614;2022-12-16T00:44:17;78.82;;;40.20;;
23670;SDS011;12012;51.998;7.614;2022-12-16T00:46:43;85.78;;;41.83;;
23670;SDS011;12012;51.998;7.614;2022-12-16T00:49:08;76.88;;;38.40;;
23670;SDS011;12012;51.998;7.614;2022-12-16T00:51:34;72.50;;;36.55;;
23670;SDS011;12012;51.998;7.614;2022-12-16T00:53:59;84.80;;;39.53;;
23670;SDS011;12012;51.998;7.614;2022-12-16T00:56:25;79.15;;;38.67;;
23670;SDS011;12012;51.998;7.614;2022-12-16T00:58:51;80.43;;;39.53;;
23670;SDS011;12012;51.998;7.614;2022-12-16T01:01:16;76.88;;;38.83;;
23670;SDS011;12012;51.998;7.614;2022-12-16T01:03:42;75.43;;;37.28;;
23670;SDS011;12012;51.998;7.614;2022-12-16T01:06:09;78.90;;;39.47;;
23670;SDS011;12012;51.998;7.614;2022-12-16T01:08:36;74.70;;;39.97;;
23670;SDS011;12012;51.998;7.614;2022-12-16T01:11:02;75.50;;;38.30;;
23670;SDS011;12012;51.998;7.614;2022-12-16T01:13:28;69.18;;;35.60;;
23670;SDS011;12012;51.998;7.614;2022-12-16T01:15:54;74.78;;;38.45;;
23670;SDS011;12012;51.998;7.614;2022-12-16T01:18:23;77.85;;;37.88;;
23670;SDS011;12012;51.998;7.614;2022-12-16T01:20:48;84.75;;;40.25;;
23670;SDS011;12012;51.998;7.614;2022-12-16T01:23:14;69.57;;;36.55;;
23670;SDS011;12012;51.998;7.614;2022-12-16T01:25:39;73.30;;;38.00;;
23670;SDS011;12012;51.998;7.614;2022-12-16T01:28:05;86.32;;;39.45;;
23670;SDS011;12012;51.998;7.614;2022-12-16T01:30:30;70.63;;;36.63;;
23670;SDS011;12012;51.998;7.614;2022-12-16T01:32:56;76.22;;;39.20;;
23670;SDS011;12012;51.998;7.614;2022-12-16T01:35:22;78.88;;;38.03;;
23670;SDS011;12012;51.998;7.614;2022-12-16T01:37:47;75.22;;;37.67;;
23670;SDS011;12012;51.998;7.614;2022-12-16T01:40:20;70.00;;;34.63;;
23670;SDS011;12012;51.998;7.614;2022-12-16T01:42:48;77.93;;;38.03;;
23670;SDS011;12012;51.998;7.614;2022-12-16T01:45:33;73.47;;;36.60;;
23670;SDS011;12012;51.998;7.614;2022-12-16T01:48:09;59.05;;;31.02;;
23670;SDS011;12012;51.998;7.614;2022-12-16T01:50:45;73.72;;;37.63;;
23670;SDS011;12012;51.998;7.614;2022-12-16T01:53:11;66.25;;;33.13;;
23670;SDS011;12012;51.998;7.614;2022-12-16T01:55:38;62.78;;;33.20;;
23670;SDS011;12012;51.998;7.614;2022-12-16T01:58:13;74.40;;;39.15;;
23670;SDS011;12012;51.998;7.614;2022-12-16T02:00:45;72.25;;;37.33;;
23670;SDS011;12012;51.998;7.614;2022-12-16T02:03:10;74.28;;;38.13;;
23670;SDS011;12012;51.998;7.614;2022-12-16T02:05:37;69.65;;;35.90;;
23670;SDS011;12012;51.998;7.614;2022-12-16T02:08:09;64.90;;;34.85;;
23670;SDS011;12012;51.998;7.614;2022-12-16T02:18:47;56.72;;;31.17;;
23670;SDS011;12012;51.998;7.614;2022-12-16T02:27:37;60.83;;;30.13;;
23670;SDS011;12012;51.998;7.614;2022-12-16T02:33:42;65.97;;;34.13;;
23670;SDS011;12012;51.998;7.614;2022-12-16T02:36:19;63.28;;;32.22;;
23670;SDS011;12012;51.998;7.614;2022-12-16T02:38:54;61.60;;;34.03;;
23670;SDS011;12012;51.998;7.614;2022-12-16T02:41:23;69.53;;;35.78;;
23670;SDS011;12012;51.998;7.614;2022-12-16T02:44:09;64.75;;;32.95;;
23670;SDS011;12012;51.998;7.614;2022-12-16T02:46:39;62.40;;;33.58;;
23670;SDS011;12012;51.998;7.614;2022-12-16T02:51:38;67.25;;;35.95;;
23670;SDS011;12012;51.998;7.614;2022-12-16T02:54:04;58.90;;;32.15;;
23670;SDS011;12012;51.998;7.614;2022-12-16T02:59:18;56.88;;;31.75;;
23670;SDS011;12012;51.998;7.614;2022-12-16T03:02:12;66.63;;;34.30;;
23670;SDS011;12012;51.998;7.614;2022-12-16T03:04:46;65.25;;;33.65;;
23670;SDS011;12012;51.998;7.614;2022-12-16T03:07:25;56.22;;;29.77;;
23670;SDS011;12012;51.998;7.614;2022-12-16T03:09:52;70.10;;;35.55;;
23670;SDS011;12012;51.998;7.614;2022-12-16T03:12:21;63.00;;;33.65;;
23670;SDS011;12012;51.998;7.614;2022-12-16T03:14:48;62.75;;;33.10;;
23670;SDS011;12012;51.998;7.614;2022-12-16T03:17:17;57.15;;;30.15;;
23670;SDS011;12012;51.998;7.614;2022-12-16T03:19:48;66.10;;;34.55;;
23670;SDS011;12012;51.998;7.614;2022-12-16T03:22:31;62.65;;;30.85;;
23670;SDS011;12012;51.998;7.614;2022-12-16T03:25:00;54.78;;;30.13;;
23670;SDS011;12012;51.998;7.614;2022-12-16T03:27:33;58.15;;;31.17;;
23670;SDS011;12012;51.998;7.614;2022-12-16T03:30:05;56.88;;;30.58;;
23670;SDS011;12012;51.998;7.614;2022-12-16T03:32:32;75.35;;;38.25;;
23670;SDS011;12012;51.998;7.614;2022-12-16T03:35:13;64.03;;;33.90;;
23670;SDS011;12012;51.998;7.614;2022-12-16T03:37:51;73.90;;;36.85;;
23670;SDS011;12012;51.998;7.614;2022-12-16T03:40:19;70.82;;;35.40;;
23670;SDS011;12012;51.998;7.614;2022-12-16T03:42:46;53.08;;;29.13;;
23670;SDS011;12012;51.998;7.614;2022-12-16T03:45:15;81.90;;;40.45;;
23670;SDS011;12012;51.998;7.614;2022-12-16T03:47:55;78.82;;;38.22;;
23670;SDS011;12012;51.998;7.614;2022-12-16T03:50:30;67.63;;;35.47;;
23670;SDS011;12012;51.998;7.614;2022-12-16T03:52:57;68.75;;;34.95;;
23670;SDS011;12012;51.998;7.614;2022-12-16T03:55:23;72.32;;;36.53;;
23670;SDS011;12012;51.998;7.614;2022-12-16T03:57:48;65.72;;;32.80;;
23670;SDS011;12012;51.998;7.614;2022-12-16T04:00:14;70.50;;;35.03;;
23670;SDS011;12012;51.998;7.614;2022-12-16T04:02:40;79.38;;;39.05;;
23670;SDS011;12012;51.998;7.614;2022-12-16T04:05:06;81.75;;;40.25;;
23670;SDS011;12012;51.998;7.614;2022-12-16T04:07:32;82.78;;;40.13;;
23670;SDS011;12012;51.998;7.614;2022-12-16T04:09:58;83.40;;;39.33;;
23670;SDS011;12012;51.998;7.614;2022-12-16T04:12:23;76.28;;;35.83;;
23670;SDS011;12012;51.998;7.614;2022-12-16T04:15:08;72.47;;;36.70;;
23670;SDS011;12012;51.998;7.614;2022-12-16T04:17:52;67.03;;;35.35;;
23670;SDS011;12012;51.998;7.614;2022-12-16T04:20:38;75.50;;;37.42;;
23670;SDS011;12012;51.998;7.614;2022-12-16T04:23:25;69.20;;;36.15;;
23670;SDS011;12012;51.998;7.614;2022-12-16T04:26:11;75.75;;;37.08;;
23670;SDS011;12012;51.998;7.614;2022-12-16T04:28:36;76.20;;;37.00;;
23670;SDS011;12012;51.998;7.614;2022-12-16T04:31:02;65.45;;;31.70;;
23670;SDS011;12012;51.998;7.614;2022-12-16T04:33:28;84.05;;;36.67;;
23670;SDS011;12012;51.998;7.614;2022-12-16T04:36:13;59.15;;;32.15;;
23670;SDS011;12012;51.998;7.614;2022-12-16T04:38:57;71.32;;;34.50;;
23670;SDS011;12012;51.998;7.614;2022-12-16T04:41:41;78.72;;;36.90;;
23670;SDS011;12012;51.998;7.614;2022-12-16T04:44:25;75.68;;;36.03;;
23670;SDS011;12012;51.998;7.614;2022-12-16T04:47:09;73.75;;;38.25;;
23670;SDS011;12012;51.998;7.614;2022-12-16T04:49:53;77.03;;;37.38;;
23670;SDS011;12012;51.998;7.614;2022-12-16T04:52:37;73.35;;;34.65;;
23670;SDS011;12012;51.998;7.614;2022-12-16T04:55:21;82.57;;;38.20;;
23670;SDS011;12012;51.998;7.614;2022-12-16T04:58:05;74.78;;;36.30;;
23670;SDS011;12012;51.998;7.614;2022-12-16T05:00:49;75.18;;;38.53;;
23670;SDS011;12012;51.998;7.614;2022-12-16T05:03:34;80.18;;;38.22;;
23670;SDS011;12012;51.998;7.614;2022-12-16T05:06:18;76.28;;;36.85;;
23670;SDS011;12012;51.998;7.614;2022-12-16T05:09:03;80.85;;;38.88;;
23670;SDS011;12012;51.998;7.614;2022-12-16T05:11:47;84.20;;;38.60;;
23670;SDS011;12012;51.998;7.614;2022-12-16T05:14:32;78.35;;;37.15;;
23670;SDS011;12012;51.998;7.614;2022-12-16T05:17:17;76.93;;;38.10;;
23670;SDS011;12012;51.998;7.614;2022-12-16T05:20:01;77.32;;;37.83;;
23670;SDS011;12012;51.998;7.614;2022-12-16T05:22:46;83.80;;;38.70;;
23670;SDS011;12012;51.998;7.614;2022-12-16T05:25:30;84.55;;;39.17;;
23670;SDS011;12012;51.998;7.614;2022-12-16T05:28:14;70.75;;;36.13;;
23670;SDS011;12012;51.998;7.614;2022-12-16T05:30:58;67.05;;;34.10;;
23670;SDS011;12012;51.998;7.614;2022-12-16T05:33:42;67.40;;;33.80;;
23670;SDS011;12012;51.998;7.614;2022-12-16T05:36:26;68.82;;;37.15;;
23670;SDS011;12012;51.998;7.614;2022-12-16T05:39:10;70.63;;;35.72;;
23670;SDS011;12012;51.998;7.614;2022-12-16T05:41:54;83.82;;;39.90;;
23670;SDS011;12012;51.998;7.614;2022-12-16T05:44:38;70.63;;;33.97;;
23670;SDS011;12012;51.998;7.614;2022-12-16T05:47:23;80.97;;;36.33;;
23670;SDS011;12012;51.998;7.614;2022-12-16T05:50:08;82.90;;;40.20;;
23670;SDS011;12012;51.998;7.614;2022-12-16T05:52:53;81.90;;;36.20;;
23670;SDS011;12012;51.998;7.614;2022-12-16T05:55:38;69.88;;;34.10;;
23670;SDS011;12012;51.998;7.614;2022-12-16T05:58:23;66.63;;;32.20;;
23670;SDS011;12012;51.998;7.614;2022-12-16T06:01:07;77.45;;;37.20;;
23670;SDS011;12012;51.998;7.614;2022-12-16T06:03:51;79.63;;;38.00;;
23670;SDS011;12012;51.998;7.614;2022-12-16T06:06:36;63.50;;;32.88;;
23670;SDS011;12012;51.998;7.614;2022-12-16T06:09:20;71.05;;;35.83;;
23670;SDS011;12012;51.998;7.614;2022-12-16T06:12:04;76.50;;;38.53;;
23670;SDS011;12012;51.998;7.614;2022-12-16T06:14:49;75.78;;;37.22;;
23670;SDS011;12012;51.998;7.614;2022-12-16T06:17:33;80.85;;;38.50;;
23670;SDS011;12012;51.998;7.614;2022-12-16T06:20:17;76.07;;;37.08;;
23670;SDS011;12012;51.998;7.614;2022-12-16T06:23:01;73.15;;;34.90;;
23670;SDS011;12012;51.998;7.614;2022-12-16T06:25:45;82.70;;;38.22;;
23670;SDS011;12012;51.998;7.614;2022-12-16T06:28:29;71.38;;;35.50;;
23670;SDS011;12012;51.998;7.614;2022-12-16T06:31:13;80.32;;;37.03;;
23670;SDS011;12012;51.998;7.614;2022-12-16T06:33:57;81.18;;;38.45;;
23670;SDS011;12012;51.998;7.614;2022-12-16T06:36:41;81.30;;;37.83;;
23670;SDS011;12012;51.998;7.614;2022-12-16T06:39:25;77.15;;;37.42;;
23670;SDS011;12012;51.998;7.614;2022-12-16T06:42:09;81.65;;;38.17;;
23670;SDS011;12012;51.998;7.614;2022-12-16T06:44:53;78.40;;;36.33;;
23670;SDS011;12012;51.998;7.614;2022-12-16T06:47:37;72.82;;;36.17;;
23670;SDS011;12012;51.998;7.614;2022-12-16T06:50:22;61.10;;;32.55;;
23670;SDS011;12012;51.998;7.614;2022-12-16T06:53:06;74.70;;;35.15;;
23670;SDS011;12012;51.998;7.614;2022-12-16T06:56:04;69.55;;;33.58;;
23670;SDS011;12012;51.998;7.614;2022-12-16T06:58:48;67.80;;;33.95;;
23670;SDS011;12012;51.998;7.614;2022-12-16T07:01:32;68.57;;;36.33;;
23670;SDS011;12012;51.998;7.614;2022-12-16T07:04:16;76.82;;;38.20;;
23670;SDS011;12012;51.998;7.614;2022-12-16T07:07:00;69.70;;;33.58;;
23670;SDS011;12012;51.998;7.614;2022-12-16T07:09:45;69.63;;;33.75;;
23670;SDS011;12012;51.998;7.614;2022-12-16T07:12:29;71.93;;;35.33;;
23670;SDS011;12012;51.998;7.614;2022-12-16T07:15:13;73.18;;;36.10;;
23670;SDS011;12012;51.998;7.614;2022-12-16T07:17:57;74.40;;;36.88;;
23670;SDS011;12012;51.998;7.614;2022-12-16T07:20:41;74.63;;;34.40;;
23670;SDS011;12012;51.998;7.614;2022-12-16T07:23:25;78.28;;;34.60;;
23670;SDS011;12012;51.998;7.614;2022-12-16T07:26:09;79.50;;;37.25;;
23670;SDS011;12012;51.998;7.614;2022-12-16T07:28:53;77.82;;;39.03;;
23670;SDS011;12012;51.998;7.614;2022-12-16T07:31:37;74.40;;;34.95;;
23670;SDS011;12012;51.998;7.614;2022-12-16T07:34:21;74.68;;;36.75;;
23670;SDS011;12012;51.998;7.614;2022-12-16T07:37:05;68.03;;;34.05;;
23670;SDS011;12012;51.998;7.614;2022-12-16T07:39:49;77.20;;;36.78;;
23670;SDS011;12012;51.998;7.614;2022-12-16T07:42:33;78.88;;;36.38;;
23670;SDS011;12012;51.998;7.614;2022-12-16T07:45:17;64.72;;;33.83;;
23670;SDS011;12012;51.998;7.614;2022-12-16T07:48:01;80.85;;;37.25;;
23670;SDS011;12012;51.998;7.614;2022-12-16T07:50:45;69.78;;;34.03;;
23670;SDS011;12012;51.998;7.614;2022-12-16T07:53:29;74.38;;;35.65;;
23670;SDS011;12012;51.998;7.614;2022-12-16T07:56:13;79.28;;;36.28;;
23670;SDS011;12012;51.998;7.614;2022-12-16T07:58:57;69.53;;;34.10;;
23670;SDS011;12012;51.998;7.614;2022-12-16T08:01:41;81.75;;;38.97;;
23670;SDS011;12012;51.998;7.614;2022-12-16T08:04:25;73.80;;;37.42;;
23670;SDS011;12012;51.998;7.614;2022-12-16T08:07:09;71.55;;;35.88;;
23670;SDS011;12012;51.998;7.614;2022-12-16T08:09:54;80.38;;;37.75;;
23670;SDS011;12012;51.998;7.614;2022-12-16T08:12:38;75.18;;;36.83;;
23670;SDS011;12012;51.998;7.614;2022-12-16T08:15:22;82.75;;;38.90;;
23670;SDS011;12012;51.998;7.614;2022-12-16T08:18:06;80.85;;;38.15;;
23670;SDS011;12012;51.998;7.614;2022-12-16T08:20:50;88.82;;;39.85;;
23670;SDS011;12012;51.998;7.614;2022-12-16T08:23:34;83.15;;;39.38;;
23670;SDS011;12012;51.998;7.614;2022-12-16T08:26:18;71.53;;;35.85;;
23670;SDS011;12012;51.998;7.614;2022-12-16T08:29:02;63.70;;;33.90;;
23670;SDS011;12012;51.998;7.614;2022-12-16T08:31:47;87.60;;;40.30;;
23670;SDS011;12012;51.998;7.614;2022-12-16T08:34:31;75.15;;;37.63;;
23670;SDS011;12012;51.998;7.614;2022-12-16T08:37:15;72.13;;;36.90;;
23670;SDS011;12012;51.998;7.614;2022-12-16T08:39:59;74.93;;;37.17;;
23670;SDS011;12012;51.998;7.614;2022-12-16T08:42:43;76.03;;;37.88;;
23670;SDS011;12012;51.998;7.614;2022-12-16T08:45:27;66.10;;;33.42;;
23670;SDS011;12012;51.998;7.614;2022-12-16T08:48:11;96.00;;;47.47;;
23670;SDS011;12012;51.998;7.614;2022-12-16T08:50:55;90.32;;;42.22;;
23670;SDS011;12012;51.998;7.614;2022-12-16T08:53:44;75.13;;;37.65;;
23670;SDS011;12012;51.998;7.614;2022-12-16T08:56:28;77.32;;;40.25;;
23670;SDS011;12012;51.998;7.614;2022-12-16T08:59:12;76.95;;;39.15;;
23670;SDS011;12012;51.998;7.614;2022-12-16T09:01:56;72.80;;;35.47;;
23670;SDS011;12012;51.998;7.614;2022-12-16T09:04:40;76.10;;;38.83;;
23670;SDS011;12012;51.998;7.614;2022-12-16T09:07:24;81.60;;;40.42;;
23670;SDS011;12012;51.998;7.614;2022-12-16T09:10:08;67.28;;;34.92;;
23670;SDS011;12012;51.998;7.614;2022-12-16T09:12:52;67.53;;;35.47;;
23670;SDS011;12012;51.998;7.614;2022-12-16T09:15:36;75.57;;;38.97;;
23670;SDS011;12012;51.998;7.614;2022-12-16T09:18:21;71.97;;;37.80;;
23670;SDS011;12012;51.998;7.614;2022-12-16T09:21:05;80.43;;;40.47;;
23670;SDS011;12012;51.998;7.614;2022-12-16T09:23:49;67.72;;;35.65;;
23670;SDS011;12012;51.998;7.614;2022-12-16T09:26:33;72.05;;;34.67;;
23670;SDS011;12012;51.998;7.614;2022-12-16T09:29:17;73.28;;;38.47;;
23670;SDS011;12012;51.998;7.614;2022-12-16T09:32:01;67.93;;;36.50;;
23670;SDS011;12012;51.998;7.614;2022-12-16T09:34:45;72.78;;;38.03;;
23670;SDS011;12012;51.998;7.614;2022-12-16T09:37:29;79.75;;;38.88;;
23670;SDS011;12012;51.998;7.614;2022-12-16T09:40:14;74.30;;;39.92;;
23670;SDS011;12012;51.998;7.614;2022-12-16T09:46:48;70.47;;;38.28;;
23670;SDS011;12012;51.998;7.614;2022-12-16T09:52:14;76.15;;;38.22;;
23670;SDS011;12012;51.998;7.614;2022-12-16T09:55:02;72.22;;;37.58;;
23670;SDS011;12012;51.998;7.614;2022-12-16T09:57:47;68.55;;;36.75;;
23670;SDS011;12012;51.998;7.614;2022-12-16T10:00:32;73.10;;;38.88;;
23670;SDS011;12012;51.998;7.614;2022-12-16T10:03:25;68.63;;;37.63;;
23670;SDS011;12012;51.998;7.614;2022-12-16T10:09:15;64.80;;;37.40;;
23670;SDS011;12012;51.998;7.614;2022-12-16T10:18:22;65.43;;;37.03;;
23670;SDS011;12012;51.998;7.614;2022-12-16T10:21:26;75.78;;;39.42;;
23670;SDS011;12012;51.998;7.614;2022-12-16T10:27:04;73.18;;;40.67;;
23670;SDS011;12012;51.998;7.614;2022-12-16T10:29:57;72.95;;;40.65;;
23670;SDS011;12012;51.998;7.614;2022-12-16T10:32:45;69.70;;;39.47;;
23670;SDS011;12012;51.998;7.614;2022-12-16T10:35:41;77.15;;;40.78;;
23670;SDS011;12012;51.998;7.614;2022-12-16T10:41:28;62.45;;;37.17;;
23670;SDS011;12012;51.998;7.614;2022-12-16T10:44:19;68.30;;;42.10;;
23670;SDS011;12012;51.998;7.614;2022-12-16T10:47:17;70.18;;;41.53;;
23670;SDS011;12012;51.998;7.614;2022-12-16T10:50:01;62.88;;;38.63;;
23670;SDS011;12012;51.998;7.614;2022-12-16T10:52:56;66.70;;;41.15;;
23670;SDS011;12012;51.998;7.614;2022-12-16T10:58:45;65.75;;;40.35;;
23670;SDS011;12012;51.998;7.614;2022-12-16T11:01:37;61.80;;;39.97;;
23670;SDS011;12012;51.998;7.614;2022-12-16T11:04:42;61.55;;;39.13;;
23670;SDS011;12012;51.998;7.614;2022-12-16T11:10:25;57.17;;;37.83;;
23670;SDS011;12012;51.998;7.614;2022-12-16T11:13:21;53.30;;;38.22;;
23670;SDS011;12012;51.998;7.614;2022-12-16T11:16:15;53.88;;;39.03;;
23670;SDS011;12012;51.998;7.614;2022-12-16T11:19:02;53.88;;;38.50;;
23670;SDS011;12012;51.998;7.614;2022-12-16T11:21:47;47.80;;;37.47;;
23670;SDS011;12012;51.998;7.614;2022-12-16T11:24:32;51.40;;;35.67;;
23670;SDS011;12012;51.998;7.614;2022-12-16T11:33:20;50.28;;;36.25;;
23670;SDS011;12012;51.998;7.614;2022-12-16T11:36:21;55.58;;;36.30;;
23670;SDS011;12012;51.998;7.614;2022-12-16T11:39:06;44.67;;;34.70;;
23670;SDS011;12012;51.998;7.614;2022-12-16T11:42:09;41.15;;;31.90;;
23670;SDS011;12012;51.998;7.614;2022-12-16T11:45:27;46.28;;;35.50;;
23670;SDS011;12012;51.998;7.614;2022-12-16T11:48:13;42.47;;;32.72;;
23670;SDS011;12012;51.998;7.614;2022-12-16T11:51:05;47.88;;;35.50;;
23670;SDS011;12012;51.998;7.614;2022-12-16T11:54:02;55.67;;;41.77;;
23670;SDS011;12012;51.998;7.614;2022-12-16T11:57:06;50.72;;;36.92;;
23670;SDS011;12012;51.998;7.614;2022-12-16T12:00:02;47.05;;;35.05;;
23670;SDS011;12012;51.998;7.614;2022-12-16T12:05:43;46.30;;;35.38;;
23670;SDS011;12012;51.998;7.614;2022-12-16T12:08:55;44.67;;;34.00;;
23670;SDS011;12012;51.998;7.614;2022-12-16T12:15:09;44.20;;;34.35;;
23670;SDS011;12012;51.998;7.614;2022-12-16T12:21:48;40.50;;;30.15;;
23670;SDS011;12012;51.998;7.614;2022-12-16T12:28:01;43.60;;;34.97;;
23670;SDS011;12012;51.998;7.614;2022-12-16T12:31:13;37.67;;;29.77;;
23670;SDS011;12012;51.998;7.614;2022-12-16T12:34:14;35.75;;;28.88;;
23670;SDS011;12012;51.998;7.614;2022-12-16T12:37:11;43.85;;;31.70;;
23670;SDS011;12012;51.998;7.614;2022-12-16T12:40:08;43.55;;;33.45;;
23670;SDS011;12012;51.998;7.614;2022-12-16T12:42:57;44.78;;;36.25;;
23670;SDS011;12012;51.998;7.614;2022-12-16T12:49:06;44.70;;;35.25;;
23670;SDS011;12012;51.998;7.614;2022-12-16T12:57:40;41.35;;;30.92;;
23670;SDS011;12012;51.998;7.614;2022-12-16T13:00:28;47.47;;;36.75;;
23670;SDS011;12012;51.998;7.614;2022-12-16T13:06:22;50.53;;;34.22;;
23670;SDS011;12012;51.998;7.614;2022-12-16T13:18:28;53.95;;;35.42;;
23670;SDS011;12012;51.998;7.614;2022-12-16T13:24:20;53.80;;;38.10;;
23670;SDS011;12012;51.998;7.614;2022-12-16T13:27:16;45.75;;;32.78;;
23670;SDS011;12012;51.998;7.614;2022-12-16T13:30:19;58.33;;;37.28;;
23670;SDS011;12012;51.998;7.614;2022-12-16T13:33:26;54.67;;;35.20;;
23670;SDS011;12012;51.998;7.614;2022-12-16T13:36:12;54.25;;;36.85;;
23670;SDS011;12012;51.998;7.614;2022-12-16T13:38:59;53.80;;;33.55;;
23670;SDS011;12012;51.998;7.614;2022-12-16T13:42:29;51.38;;;33.08;;
23670;SDS011;12012;51.998;7.614;2022-12-16T13:45:28;47.50;;;30.33;;
23670;SDS011;12012;51.998;7.614;2022-12-16T13:54:22;51.13;;;28.95;;
23670;SDS011;12012;51.998;7.614;2022-12-16T13:57:22;61.78;;;34.65;;
23670;SDS011;12012;51.998;7.614;2022-12-16T14:00:29;60.58;;;34.80;;
23670;SDS011;12012;51.998;7.614;2022-12-16T14:03:21;68.03;;;36.40;;
23670;SDS011;12012;51.998;7.614;2022-12-16T14:06:25;64.55;;;37.83;;
23670;SDS011;12012;51.998;7.614;2022-12-16T14:09:18;56.45;;;34.15;;
23670;SDS011;12012;51.998;7.614;2022-12-16T14:12:19;60.20;;;34.30;;
23670;SDS011;12012;51.998;7.614;2022-12-16T14:15:40;57.90;;;35.63;;
23670;SDS011;12012;51.998;7.614;2022-12-16T14:21:49;57.35;;;30.70;;
23670;SDS011;12012;51.998;7.614;2022-12-16T14:24:37;66.07;;;37.60;;
23670;SDS011;12012;51.998;7.614;2022-12-16T14:27:21;59.75;;;34.38;;
23670;SDS011;12012;51.998;7.614;2022-12-16T14:30:19;60.58;;;33.17;;
23670;SDS011;12012;51.998;7.614;2022-12-16T14:33:24;56.38;;;31.73;;
23670;SDS011;12012;51.998;7.614;2022-12-16T14:36:21;60.60;;;33.42;;
23670;SDS011;12012;51.998;7.614;2022-12-16T14:39:12;65.75;;;35.63;;
23670;SDS011;12012;51.998;7.614;2022-12-16T14:42:04;53.80;;;29.90;;
23670;SDS011;12012;51.998;7.614;2022-12-16T14:48:11;54.35;;;30.98;;
23670;SDS011;12012;51.998;7.614;2022-12-16T14:51:25;50.13;;;29.83;;
23670;SDS011;12012;51.998;7.614;2022-12-16T14:57:32;58.25;;;32.50;;
23670;SDS011;12012;51.998;7.614;2022-12-16T15:00:20;56.33;;;31.00;;
23670;SDS011;12012;51.998;7.614;2022-12-16T15:06:05;55.35;;;31.60;;
23670;SDS011;12012;51.998;7.614;2022-12-16T15:11:39;50.97;;;29.13;;
23670;SDS011;12012;51.998;7.614;2022-12-16T15:14:28;56.42;;;31.40;;
23670;SDS011;12012;51.998;7.614;2022-12-16T15:17:18;64.07;;;36.00;;
23670;SDS011;12012;51.998;7.614;2022-12-16T15:20:05;62.25;;;33.90;;
23670;SDS011;12012;51.998;7.614;2022-12-16T15:22:57;63.13;;;35.42;;
23670;SDS011;12012;51.998;7.614;2022-12-16T15:25:41;82.15;;;41.20;;
23670;SDS011;12012;51.998;7.614;2022-12-16T15:28:36;62.23;;;35.63;;
23670;SDS011;12012;51.998;7.614;2022-12-16T15:31:24;62.22;;;33.67;;
23670;SDS011;12012;51.998;7.614;2022-12-16T15:34:44;73.43;;;38.42;;
23670;SDS011;12012;51.998;7.614;2022-12-16T15:37:24;58.40;;;30.60;;
23670;SDS011;12012;51.998;7.614;2022-12-16T15:40:21;55.50;;;31.75;;
23670;SDS011;12012;51.998;7.614;2022-12-16T15:43:25;58.42;;;31.75;;
23670;SDS011;12012;51.998;7.614;2022-12-16T15:46:21;84.28;;;42.75;;
23670;SDS011;12012;51.998;7.614;2022-12-16T15:49:20;57.30;;;32.42;;
23670;SDS011;12012;51.998;7.614;2022-12-16T15:58:38;79.38;;;42.60;;
23670;SDS011;12012;51.998;7.614;2022-12-16T16:04:13;60.67;;;31.95;;
23670;SDS011;12012;51.998;7.614;2022-12-16T16:07:07;69.68;;;36.60;;
23670;SDS011;12012;51.998;7.614;2022-12-16T16:10:20;70.43;;;37.20;;
23670;SDS011;12012;51.998;7.614;2022-12-16T16:13:05;86.32;;;43.58;;
23670;SDS011;12012;51.998;7.614;2022-12-16T16:15:50;84.75;;;39.95;;
23670;SDS011;12012;51.998;7.614;2022-12-16T16:18:35;117.45;;;50.60;;
23670;SDS011;12012;51.998;7.614;2022-12-16T16:21:19;90.82;;;42.60;;
23670;SDS011;12012;51.998;7.614;2022-12-16T16:24:04;119.50;;;51.20;;
23670;SDS011;12012;51.998;7.614;2022-12-16T16:26:48;86.03;;;38.72;;
23670;SDS011;12012;51.998;7.614;2022-12-16T16:29:32;80.05;;;37.90;;
23670;SDS011;12012;51.998;7.614;2022-12-16T16:32:16;80.63;;;39.83;;
23670;SDS011;12012;51.998;7.614;2022-12-16T16:35:00;87.10;;;41.22;;
23670;SDS011;12012;51.998;7.614;2022-12-16T16:37:57;76.72;;;36.40;;
23670;SDS011;12012;51.998;7.614;2022-12-16T16:40:42;101.35;;;47.67;;
23670;SDS011;12012;51.998;7.614;2022-12-16T16:43:27;82.47;;;40.88;;
23670;SDS011;12012;51.998;7.614;2022-12-16T16:49:02;87.88;;;42.53;;
23670;SDS011;12012;51.998;7.614;2022-12-16T16:51:47;104.70;;;45.63;;
23670;SDS011;12012;51.998;7.614;2022-12-16T16:54:31;107.55;;;49.20;;
23670;SDS011;12012;51.998;7.614;2022-12-16T16:57:15;100.90;;;48.17;;
23670;SDS011;12012;51.998;7.614;2022-12-16T16:59:59;80.53;;;39.60;;
23670;SDS011;12012;51.998;7.614;2022-12-16T17:02:43;92.68;;;46.88;;
23670;SDS011;12012;51.998;7.614;2022-12-16T17:05:27;93.82;;;45.30;;
23670;SDS011;12012;51.998;7.614;2022-12-16T17:08:11;113.88;;;56.45;;
23670;SDS011;12012;51.998;7.614;2022-12-16T17:10:55;90.07;;;44.60;;
23670;SDS011;12012;51.998;7.614;2022-12-16T17:13:39;81.10;;;40.63;;
23670;SDS011;12012;51.998;7.614;2022-12-16T17:16:23;76.40;;;38.53;;
23670;SDS011;12012;51.998;7.614;2022-12-16T17:19:07;79.30;;;37.70;;
23670;SDS011;12012;51.998;7.614;2022-12-16T17:21:51;82.45;;;39.95;;
23670;SDS011;12012;51.998;7.614;2022-12-16T17:24:35;103.25;;;48.47;;
23670;SDS011;12012;51.998;7.614;2022-12-16T17:27:20;77.32;;;39.25;;
23670;SDS011;12012;51.998;7.614;2022-12-16T17:30:17;81.43;;;39.65;;
23670;SDS011;12012;51.998;7.614;2022-12-16T17:33:03;84.63;;;41.55;;
23670;SDS011;12012;51.998;7.614;2022-12-16T17:35:48;98.07;;;47.13;;
23670;SDS011;12012;51.998;7.614;2022-12-16T17:38:40;89.18;;;44.17;;
23670;SDS011;12012;51.998;7.614;2022-12-16T17:41:27;93.07;;;45.60;;
23670;SDS011;12012;51.998;7.614;2022-12-16T17:44:12;91.40;;;43.90;;
23670;SDS011;12012;51.998;7.614;2022-12-16T17:46:56;90.10;;;43.78;;
23670;SDS011;12012;51.998;7.614;2022-12-16T17:49:40;96.50;;;45.22;;
23670;SDS011;12012;51.998;7.614;2022-12-16T17:52:24;90.70;;;42.40;;
23670;SDS011;12012;51.998;7.614;2022-12-16T17:55:08;105.93;;;50.38;;
23670;SDS011;12012;51.998;7.614;2022-12-16T17:57:52;92.22;;;45.47;;
23670;SDS011;12012;51.998;7.614;2022-12-16T18:00:36;89.68;;;41.58;;